• Join FlightAware (Why Join?)
  • Login
  • US Flag 
12:22AM EDT


 

Airport Tracker/Info


-or-


 

Live Flight TrackerFlight Track Log ✈ UAL33 ✈ 17-Jun-2013 ✈ KIAH - KORD

Flight Track Log - Related Links

Times and Time Zones

All times are in EDT time to prevent confusion due to time zone crossing. See the UAL33 flight status page for this flight to view local times or setup timezone preferences in your user account.

Time Position Orientation Groundspeed Altitude Reporting Facility
EDT Latitude Longitude Course Direction KTS MPH feet Rate Location/Type
05:31PM 29.9696 -95.3466 270° West 168 193 200  Level FlightAware ADS-B
05:31PM 29.9592 -95.3401 152° Southeast 167 192 900 2,400 Climbing FlightAware ADS-B
05:31PM 29.9564 -95.3378 145° Southeast 168 193 1,000 1,980 Climbing FlightAware ADS-B
05:31PM 29.9541 -95.3354 138° Southeast 172 198 1,200 2,460 Climbing FlightAware ADS-B
05:32PM 29.9499 -95.3293 128° Southeast 180 207 1,500 1,980 Climbing FlightAware ADS-B
05:32PM 29.9484 -95.3254 114° Southeast 184 212 1,600 1,500 Climbing FlightAware ADS-B
05:32PM 29.9475 -95.3222 108° East 187 215 1,700 1,800 Climbing FlightAware ADS-B
05:32PM 29.9469 -95.3124 94° East 193 222 2,000 1,800 Climbing FlightAware ADS-B
05:32PM 29.9476 -95.3080 80° East 209 241 2,100 1,200 Climbing FlightAware ADS-B
05:32PM 29.9498 -95.3018 68° East 221 254 2,200 1,200 Climbing FlightAware ADS-B
05:32PM 29.9521 -95.2977 57° Northeast 229 264 2,300 1,680 Climbing FlightAware ADS-B
05:32PM 29.9541 -95.2948 51° Northeast 235 270 2,400 1,320 Climbing FlightAware ADS-B
05:32PM 29.9590 -95.2899 41° Northeast 243 280 2,500 1,320 Climbing FlightAware ADS-B
05:32PM 29.9619 -95.2878 32° Northeast 249 287 2,600 1,980 Climbing FlightAware ADS-B
05:32PM 29.9651 -95.2859 27° Northeast 256 295 2,700 1,320 Climbing FlightAware ADS-B
05:32PM 29.9720 -95.2833 18° North 266 306 2,800 1,800 Climbing FlightAware ADS-B
05:33PM 29.9807 -95.2822 North 273 314 3,100 2,700 Climbing FlightAware ADS-B
05:33PM 29.9861 -95.2826 356° North 275 316 3,300 2,100 Climbing FlightAware ADS-B
05:33PM 29.9987 -95.2854 349° North 276 318 3,600 720 Climbing FlightAware ADS-B
05:34PM 30.0565 -95.3034 345° North 278 320 4,000 540 Climbing FlightAware ADS-B
05:35PM 30.1387 -95.3294 343° North 280 322 4,700 960 Climbing FlightAware ADS-B
05:35PM 30.1483 -95.3340 337° Northwest 281 323 5,200 3,660 Climbing FlightAware ADS-B
05:35PM 30.1597 -95.3411 330° Northwest 281 323 5,800 3,840 Climbing FlightAware ADS-B
05:35PM 30.1675 -95.3471 326° Northwest 280 322 6,300 3,780 Climbing FlightAware ADS-B
05:35PM 30.1837 -95.3605 324° Northwest 281 323 7,200 3,360 Climbing FlightAware ADS-B
05:36PM 30.1996 -95.3737 324° Northwest 287 330 8,000 2,520 Climbing FlightAware ADS-B
05:39PM 30.4357 -95.5693 324° Northwest 395 455 15,900 2,160 Climbing FlightAware ADS-B
05:39PM 30.4812 -95.6072 324° Northwest 397 457 16,000 540 Climbing FlightAware ADS-B
05:40PM 30.5323 -95.6475 328° Northwest 394 453 16,500 2,100 Climbing FlightAware ADS-B
05:40PM 30.5700 -95.6703 332° Northwest 390 449 18,000 3,060 Climbing FlightAware ADS-B
05:41PM 30.6739 -95.7238 340° North 400 460 20,900 2,700 Climbing FlightAware ADS-B
05:42PM 30.7413 -95.7394 350° North 406 467 22,500 1,980 Climbing FlightAware ADS-B
05:42PM 30.8057 -95.7506 352° North 407 468 23,300 1,620 Climbing FlightAware ADS-B
05:44PM 30.9842 -95.7813 352° North 444 511 26,000 1,920 Climbing FlightAware ADS-B
05:45PM 31.0463 -95.7920 352° North 445 512 27,200 2,220 Climbing FlightAware ADS-B
05:45PM 31.1375 -95.8077 352° North 446 513 28,800 1,500 Climbing FlightAware ADS-B
05:46PM 31.2700 -95.8307 352° North 478 550 29,900 1,020 Climbing FlightAware ADS-B
05:47PM 31.3551 -95.8456 351° North 484 557 30,600 1,200 Climbing FlightAware ADS-B
05:48PM 31.4340 -95.8592 352° North 495 570 31,400 1,320 Climbing FlightAware ADS-B
05:48PM 31.5183 -95.8739 352° North 509 586 32,200 1,320 Climbing FlightAware ADS-B
05:49PM 31.5996 -95.8879 352° North 512 589 33,000 1,560 Climbing FlightAware ADS-B
05:49PM 31.6720 -95.9010 351° North 513 590 33,900 1,080 Climbing FlightAware
05:51PM 31.8650 -95.9350 351° North 525 604 35,100 1,020 Climbing FlightAware
05:51PM 31.9640 -95.9520 352° North 524 603 36,100 1,440 Climbing FlightAware
05:52PM 32.0640 -95.9700 351° North 523 602 37,100 1,320 Climbing FlightAware
05:53PM 32.2710 -96.0060 352° North 505 581 39,000 840 Climbing FlightAware
05:54PM 32.3640 -96.0230 351° North 498 573 39,000  Level FlightAware
05:55PM 32.4590 -96.0400 351° North 498 573 39,000  Level FlightAware
05:57PM 32.7520 -96.0920 351° North 504 580 39,000  Level FlightAware
05:58PM 32.8410 -96.1080 351° North 505 581 39,000  Level FlightAware
05:58PM 32.9390 -96.1260 351° North 505 581 39,000  Level FlightAware
05:59PM 33.0800 -96.1270 360° North 517 595 39,000  Level FlightAware
06:00PM 33.1690 -96.1100 North 517 595 39,000  Level FlightAware
06:01PM 33.2630 -96.0920 North 516 594 39,000  Level FlightAware
06:01PM 33.3610 -96.0730 North 517 595 39,000  Level FlightAware
06:02PM 33.4590 -96.0540 North 519 597 39,000  Level FlightAware
06:03PM 33.5550 -96.0360 North 521 600 39,000  Level FlightAware
06:03PM 33.6490 -96.0180 North 523 602 39,000  Level FlightAware
06:04PM 33.7600 -95.9960 North 523 602 39,000  Level FlightAware
06:05PM 33.8520 -95.9780 North 522 601 39,000  Level FlightAware
06:05PM 33.9560 -95.9580 North 521 600 39,000  Level FlightAware
06:06PM 34.0610 -95.9380 North 521 600 39,000  Level FlightAware
06:07PM 34.1440 -95.9210 10° North 521 600 39,000  Level FlightAware
06:08PM 34.2560 -95.8920 12° North 529 609 39,000  Level FlightAware
06:08PM 34.3420 -95.8310 30° Northeast 537 618 39,000  Level FlightAware
06:09PM 34.4330 -95.7510 36° Northeast 535 616 39,000  Level FlightAware
06:10PM 34.5130 -95.6810 36° Northeast 536 617 39,000  Level FlightAware
06:10PM 34.5790 -95.6250 35° Northeast 536 617 39,000  Level FlightAware
06:11PM 34.6690 -95.5450 36° Northeast 534 615 39,000  Level FlightAware
06:12PM 34.7420 -95.4810 36° Northeast 534 615 39,000  Level FlightAware
06:13PM 34.8470 -95.3870 36° Northeast 534 615 39,000  Level FlightAware
06:13PM 34.9080 -95.3330 36° Northeast 534 615 39,000  Level FlightAware
06:14PM 35.0660 -95.1930 36° Northeast 536 617 39,000  Level FlightAware
06:15PM 35.1660 -95.1040 36° Northeast 537 618 39,000  Level FlightAware
06:16PM 35.2300 -95.0470 36° Northeast 537 618 39,000  Level FlightAware
06:17PM 35.3100 -94.9760 36° Northeast 537 618 39,000  Level FlightAware
06:17PM 35.4520 -94.8470 36° Northeast 535 616 39,000  Level FlightAware
06:18PM 35.5420 -94.7660 36° Northeast 536 617 39,000  Level FlightAware
06:19PM 35.6230 -94.6930 36° Northeast 537 618 39,000  Level FlightAware
06:20PM 35.7080 -94.6170 36° Northeast 537 618 39,000  Level FlightAware
06:20PM 35.8030 -94.5410 33° Northeast 536 617 39,000  Level FlightAware
06:21PM 35.8860 -94.4780 32° Northeast 536 617 39,000  Level FlightAware
06:22PM 35.9670 -94.4160 32° Northeast 536 617 39,000  Level FlightAware
06:22PM 36.0650 -94.3420 31° Northeast 536 617 39,000  Level FlightAware
06:23PM 36.1490 -94.2770 32° Northeast 537 618 39,000  Level FlightAware
06:24PM 36.2460 -94.2030 32° Northeast 538 619 39,000  Level FlightAware
06:24PM 36.3290 -94.1390 32° Northeast 536 617 39,000  Level FlightAware
06:25PM 36.4180 -94.0700 32° Northeast 536 617 39,000  Level FlightAware
06:26PM 36.5000 -94.0060 32° Northeast 536 617 39,000  Level FlightAware
06:27PM 36.5880 -93.9390 31° Northeast 535 616 39,000  Level FlightAware
06:27PM 36.6830 -93.8640 32° Northeast 535 616 39,000  Level FlightAware
06:28PM 36.7660 -93.7990 32° Northeast 535 616 39,000  Level FlightAware
06:29PM 36.8580 -93.7280 32° Northeast 535 616 39,000  Level FlightAware
06:29PM 36.9430 -93.6610 32° Northeast 535 616 39,000  Level FlightAware
06:30PM 37.0360 -93.5880 32° Northeast 534 615 39,000  Level FlightAware
06:31PM 37.1230 -93.5190 32° Northeast 534 615 39,000  Level FlightAware
06:31PM 37.2050 -93.4540 32° Northeast 532 612 39,000  Level FlightAware
06:32PM 37.3030 -93.3760 32° Northeast 531 611 39,000  Level FlightAware
06:33PM 37.3850 -93.3070 34° Northeast 534 615 39,000  Level FlightAware
06:34PM 37.4650 -93.2330 36° Northeast 537 618 39,000  Level FlightAware
06:34PM 37.5520 -93.1530 36° Northeast 539 620 39,000  Level FlightAware
06:35PM 37.6250 -93.0850 36° Northeast 539 620 39,000  Level FlightAware
06:36PM 37.7240 -92.9940 36° Northeast 540 621 39,000  Level FlightAware
06:36PM 37.8030 -92.9200 36° Northeast 539 620 39,000  Level FlightAware
06:37PM 37.8880 -92.8400 37° Northeast 540 621 39,000  Level FlightAware
06:38PM 37.9710 -92.7630 36° Northeast 539 620 39,000  Level FlightAware
06:38PM 38.0540 -92.6840 37° Northeast 538 619 39,000  Level FlightAware
06:39PM 38.1390 -92.6040 37° Northeast 539 620 39,000  Level FlightAware
06:40PM 38.2190 -92.5280 37° Northeast 539 620 39,000  Level FlightAware
06:41PM 38.3330 -92.4210 36° Northeast 539 620 39,000  Level FlightAware
06:41PM 38.3990 -92.3610 35° Northeast 539 620 39,000  Level FlightAware
06:42PM 38.4600 -92.3040 36° Northeast 539 620 39,000  Level FlightAware
06:43PM 38.5430 -92.2270 36° Northeast 539 620 39,000  Level FlightAware
06:44PM 38.6460 -92.1320 36° Northeast 539 620 39,000  Level FlightAware
06:44PM 38.7070 -92.0740 37° Northeast 539 620 39,000  Level FlightAware
06:45PM 38.8570 -91.9180 39° Northeast 543 625 39,000  Level FlightAware
06:46PM 38.9490 -91.8280 37° Northeast 544 626 39,000  Level FlightAware
06:47PM 39.0590 -91.7220 37° Northeast 545 627 39,000  Level FlightAware
06:48PM 39.2080 -91.5760 37° Northeast 544 626 39,000  Level FlightAware
06:49PM 39.3160 -91.4700 37° Northeast 545 627 39,000  Level FlightAware
06:50PM 39.3850 -91.4010 38° Northeast 544 626 39,000  Level FlightAware
06:50PM 39.4750 -91.3130 37° Northeast 544 626 39,000  Level FlightAware
06:51PM 39.5590 -91.2300 37° Northeast 544 626 39,000  Level FlightAware
06:52PM 39.6490 -91.1400 38° Northeast 545 627 39,000  Level FlightAware
06:52PM 39.7370 -91.0520 38° Northeast 544 626 39,000  Level FlightAware
06:53PM 39.8190 -90.9690 38° Northeast 544 626 39,000  Level FlightAware
06:54PM 39.8970 -90.8910 37° Northeast 546 628 39,000  Level FlightAware
06:55PM 39.9760 -90.8130 37° Northeast 548 631 39,000 -1,740 Level FlightAware
06:55PM 40.0730 -90.7130 38° Northeast 550 633 36,500 -3,240 Descending FlightAware
06:56PM 40.1510 -90.6340 38° Northeast 536 617 34,500 -2,460 Descending FlightAware
06:57PM 40.2340 -90.5490 38° Northeast 527 606 33,100 -1,020 Descending FlightAware
06:57PM 40.3210 -90.4600 38° Northeast 522 601 33,000 -660 Descending FlightAware
06:58PM 40.3980 -90.3810 38° Northeast 523 602 32,200 -2,040 Descending FlightAware
06:59PM 40.4780 -90.3000 38° Northeast 540 621 30,300 -1,980 Descending FlightAware
06:59PM 40.5510 -90.2240 38° Northeast 526 605 29,600 -1,080 Descending FlightAware
07:00PM 40.6340 -90.1380 38° Northeast 497 572 28,800 -1,080 Descending FlightAware
07:01PM 40.7130 -90.0560 38° Northeast 476 548 28,100 -960 Descending FlightAware
07:02PM 40.7820 -89.9850 38° Northeast 466 536 27,500 -960 Descending FlightAware
07:02PM 40.8510 -89.9120 39° Northeast 463 533 26,800 -900 Descending FlightAware
07:03PM 40.9140 -89.8460 38° Northeast 448 516 26,300 -900 Descending FlightAware
07:04PM 40.9950 -89.7620 38° Northeast 431 496 25,500 -900 Descending FlightAware
07:04PM 41.0540 -89.6990 39° Northeast 426 490 25,000 -900 Descending FlightAware
07:05PM 41.1230 -89.6270 38° Northeast 426 490 24,300 -1,140 Descending FlightAware
07:06PM 41.1760 -89.5460 49° Northeast 436 502 23,400 -1,740 Descending FlightAware
07:06PM 41.2150 -89.4500 62° Northeast 437 503 22,000 -2,100 Descending FlightAware
07:07PM 41.2570 -89.3480 61° Northeast 431 496 20,500 -2,100 Descending FlightAware
07:08PM 41.2890 -89.2690 62° Northeast 427 491 19,300 -2,040 Descending FlightAware
07:09PM 41.3320 -89.1610 62° Northeast 421 484 17,700 -1,980 Descending FlightAware
07:09PM 41.3710 -89.0640 62° Northeast 413 475 16,400 -1,920 Descending FlightAware
07:10PM 41.4100 -88.9670 62° Northeast 401 461 15,000 -1,980 Descending FlightAware
07:11PM 41.4650 -88.8280 62° Northeast 389 448 12,900 -1,920 Descending FlightAware
07:12PM 41.4930 -88.7580 62° Northeast 379 436 11,800 -1,260 Descending FlightAware
07:13PM 41.5350 -88.6500 63° Northeast 358 412 11,100 -480 Descending FlightAware
07:13PM 41.5650 -88.5740 62° Northeast 373 429 11,100  Level FlightAware
07:14PM 41.6010 -88.4850 62° Northeast 373 429 11,100  Level FlightAware
07:15PM 41.6420 -88.4100 54° Northeast 366 421 11,100 -600 Level FlightAware
07:15PM 41.6850 -88.3360 52° Northeast 367 422 10,300 -780 Descending FlightAware
07:16PM 41.7290 -88.2610 52° Northeast 367 422 10,100 -180 Descending FlightAware
07:17PM 41.7770 -88.1790 52° Northeast 356 410 10,100 -120 Level FlightAware
07:17PM 41.8140 -88.1150 52° Northeast 317 365 10,000 -300 Descending FlightAware
07:18PM 41.8460 -88.0440 59° Northeast 295 339 9,700 -660 Descending FlightAware
07:19PM 41.8540 -88.0010 76° East 295 339 9,300 -1,560 Descending FlightAware
07:19PM 41.8610 -87.9550 78° East 285 328 8,400 -2,160 Descending FlightAware
07:19PM 41.8700 -87.8980 78° East 291 335 7,200 -1,380 Descending FlightAware
07:20PM 41.8760 -87.8540 80° East 271 312 7,100 -120 Descending FlightAware
07:20PM 41.8830 -87.8090 78° East 245 282 7,100 -660 Level FlightAware
07:21PM 41.8840 -87.7660 88° East 246 283 6,500 -1,200 Descending FlightAware
07:21PM 41.8840 -87.7250 90° East 240 276 6,000 -1,020 Descending FlightAware
07:22PM 41.8840 -87.7000 90° East 242 278 5,700 -900 Descending FlightAware
07:22PM 41.8880 -87.6680 80° East 227 261 5,400 -720 Descending FlightAware
07:22PM 41.8990 -87.6540 43° Northeast 212 244 5,300 -480 Descending FlightAware
07:22PM 41.9080 -87.6510 14° North 202 232 5,200 -600 Descending FlightAware
07:23PM 41.9310 -87.6690 330° Northwest 188 216 4,900 -660 Descending FlightAware
07:23PM 41.9450 -87.6930 308° West 186 214 4,600 -900 Descending FlightAware
07:24PM 41.9640 -87.7220 311° West 186 214 4,000 -1,140 Descending FlightAware
07:24PM 41.9680 -87.7340 294° West 183 211 3,800 -1,020 Descending FlightAware
07:24PM 41.9690 -87.7470 276° West 173 199 3,600 -1,080 Descending FlightAware
07:25PM 41.9690 -87.7750 270° West 161 185 3,100 -1,200 Descending FlightAware
07:25PM 41.9690 -87.7870 270° West 157 181 2,800 -1,860 Descending FlightAware
07:25PM 41.9690 -87.8150 270° West 154 177 1,900 -1,740 Descending FlightAware
07:26PM 41.9690 -87.8310 270° West 152 175 1,500 -1,080 Descending FlightAware
07:26PM 41.9690 -87.8510 270° West 136 157 1,200 -780 Descending FlightAware
07:27PM 41.9690 -87.8790 270° West 135 155 800 -420 Descending FlightAware
07:27PM 41.9690 -87.9010 270° West 134 154 800  Level FlightAware